This is the latest recevied weather packets stored in our database for station/object ON3FV. If no packets are shown the sender has not sent any weather packets the latest 10 day(s).
| Time | Temp. | Humidity | Pressure | Rain* | Wind** | Luminosity | Snow |
|---|---|---|---|---|---|---|---|
| 1777714915 | 20.56° C | 77% | 1017.9 hPa | - | - | - | - |
| 1777712529 | 20.56° C | 76% | 1018.2 hPa | - | - | - | - |
| 1777711604 | 20.56° C | 77% | 1018.1 hPa | - | - | - | - |
| 1777709216 | 20° C | 79% | 1018.1 hPa | - | - | - | - |
| 1777707089 | 17.78° C | 85% | 1018.1 hPa | - | - | - | - |
| 1777706488 | 17.22° C | 83% | 1018.2 hPa | - | - | - | - |
| 1777704982 | 16.67° C | 84% | 1018.3 hPa | - | - | - | - |
| 1777703778 | 15.56° C | 85% | 1018.2 hPa | - | - | - | - |
| 1777701370 | 14.44° C | 84% | 1018 hPa | - | - | - | - |
| 1777701068 | 14.44° C | 84% | 1018 hPa | - | - | - | - |
| 1777697155 | 14.44° C | 81% | 1018.1 hPa | - | - | - | - |
| 1777696854 | 14.44° C | 80% | 1018.1 hPa | - | - | - | - |
| 1777696252 | 14.44° C | 80% | 1018 hPa | - | - | - | - |
| 1777693543 | 14.44° C | 79% | 1018.1 hPa | - | - | - | - |
| 1777692339 | 14.44° C | 78% | 1018.2 hPa | - | - | - | - |
| 1777689329 | 14.44° C | 73% | 1018.8 hPa | - | - | - | - |
| 1777689028 | 14.44° C | 71% | 1018.8 hPa | - | - | - | - |
| 1777676988 | 15.56° C | 61% | 1019.3 hPa | - | - | - | - |
| 1777675783 | 15.56° C | 63% | 1019.4 hPa | - | - | - | - |
| 1777675493 | 15.56° C | 63% | 1019.4 hPa | - | - | - | - |
| 1777672794 | 16.11° C | 60% | 1019.6 hPa | - | - | - | - |
| 1777669162 | 17.22° C | 56% | 1019.8 hPa | - | - | - | - |
| 1777668560 | 17.78° C | 56% | 1019.8 hPa | - | - | - | - |
| 1777667356 | 18.33° C | 53% | 1019.7 hPa | - | - | - | - |
| 1777665891 | 19.44° C | 52% | 1019.5 hPa | - | - | - | - |
* Rain since midnight (hover to see other rain measurements)
** Current wind speed in m/s (hover to see current wind gust speed)